sensor_id;sensor_type;location;lat;lon;timestamp;temperature;humidity
64501;DHT22;50874;24.150;-110.320;2023-03-01T00:02:22;23.40;66.50
64501;DHT22;50874;24.150;-110.320;2023-03-01T00:04:48;23.50;66.20
64501;DHT22;50874;24.150;-110.320;2023-03-01T00:07:15;23.50;65.90
64501;DHT22;50874;24.150;-110.320;2023-03-01T00:09:41;23.50;65.40
64501;DHT22;50874;24.150;-110.320;2023-03-01T00:12:08;23.30;65.80
64501;DHT22;50874;24.150;-110.320;2023-03-01T00:14:35;23.20;66.90
64501;DHT22;50874;24.150;-110.320;2023-03-01T00:17:02;23.20;67.40
64501;DHT22;50874;24.150;-110.320;2023-03-01T00:19:29;23.20;67.60
64501;DHT22;50874;24.150;-110.320;2023-03-01T00:21:55;23.20;67.70
64501;DHT22;50874;24.150;-110.320;2023-03-01T00:24:21;23.30;68.00
64501;DHT22;50874;24.150;-110.320;2023-03-01T00:26:48;23.30;69.00
64501;DHT22;50874;24.150;-110.320;2023-03-01T00:29:15;23.30;68.10
64501;DHT22;50874;24.150;-110.320;2023-03-01T00:31:42;23.00;68.70
64501;DHT22;50874;24.150;-110.320;2023-03-01T00:34:09;23.00;69.60
64501;DHT22;50874;24.150;-110.320;2023-03-01T00:36:37;22.90;69.30
64501;DHT22;50874;24.150;-110.320;2023-03-01T00:39:05;22.90;70.40
64501;DHT22;50874;24.150;-110.320;2023-03-01T00:41:32;22.80;71.00
64501;DHT22;50874;24.150;-110.320;2023-03-01T00:44:00;22.80;71.30
64501;DHT22;50874;24.150;-110.320;2023-03-01T00:46:27;22.80;70.50
64501;DHT22;50874;24.150;-110.320;2023-03-01T00:48:56;22.80;68.50
64501;DHT22;50874;24.150;-110.320;2023-03-01T00:51:27;22.70;68.50
64501;DHT22;50874;24.150;-110.320;2023-03-01T00:53:56;22.50;67.80
64501;DHT22;50874;24.150;-110.320;2023-03-01T00:56:23;22.40;67.80
64501;DHT22;50874;24.150;-110.320;2023-03-01T00:58:50;22.30;68.20
64501;DHT22;50874;24.150;-110.320;2023-03-01T01:01:28;22.20;68.90
64501;DHT22;50874;24.150;-110.320;2023-03-01T01:04:02;22.10;69.80
64501;DHT22;50874;24.150;-110.320;2023-03-01T01:06:37;22.00;69.10
64501;DHT22;50874;24.150;-110.320;2023-03-01T01:09:06;21.90;69.50
64501;DHT22;50874;24.150;-110.320;2023-03-01T01:11:33;21.80;69.40
64501;DHT22;50874;24.150;-110.320;2023-03-01T01:14:02;21.70;69.40
64501;DHT22;50874;24.150;-110.320;2023-03-01T01:16:29;21.70;69.40
64501;DHT22;50874;24.150;-110.320;2023-03-01T01:18:57;21.60;69.20
64501;DHT22;50874;24.150;-110.320;2023-03-01T01:21:25;21.60;69.40
64501;DHT22;50874;24.150;-110.320;2023-03-01T01:23:52;21.50;70.20
64501;DHT22;50874;24.150;-110.320;2023-03-01T01:26:37;21.40;70.50
64501;DHT22;50874;24.150;-110.320;2023-03-01T01:29:04;21.30;71.00
64501;DHT22;50874;24.150;-110.320;2023-03-01T01:31:34;21.20;71.80
64501;DHT22;50874;24.150;-110.320;2023-03-01T01:34:03;21.10;71.90
64501;DHT22;50874;24.150;-110.320;2023-03-01T01:36:31;21.10;71.60
64501;DHT22;50874;24.150;-110.320;2023-03-01T01:39:01;21.00;72.00
64501;DHT22;50874;24.150;-110.320;2023-03-01T01:41:29;21.00;72.50
64501;DHT22;50874;24.150;-110.320;2023-03-01T01:47:14;20.80;71.20
64501;DHT22;50874;24.150;-110.320;2023-03-01T01:50:00;20.80;71.20
64501;DHT22;50874;24.150;-110.320;2023-03-01T01:52:36;20.70;71.50
64501;DHT22;50874;24.150;-110.320;2023-03-01T01:55:10;20.60;71.20
64501;DHT22;50874;24.150;-110.320;2023-03-01T01:57:41;20.60;71.60
64501;DHT22;50874;24.150;-110.320;2023-03-01T02:00:20;20.50;70.60
64501;DHT22;50874;24.150;-110.320;2023-03-01T02:02:50;20.40;70.80
64501;DHT22;50874;24.150;-110.320;2023-03-01T02:07:59;20.30;70.50
64501;DHT22;50874;24.150;-110.320;2023-03-01T02:10:27;20.30;70.70
64501;DHT22;50874;24.150;-110.320;2023-03-01T02:12:55;20.30;70.10
64501;DHT22;50874;24.150;-110.320;2023-03-01T02:15:24;20.30;70.10
64501;DHT22;50874;24.150;-110.320;2023-03-01T02:17:53;20.10;69.50
64501;DHT22;50874;24.150;-110.320;2023-03-01T02:23:23;20.10;70.90
64501;DHT22;50874;24.150;-110.320;2023-03-01T02:28:48;20.00;72.70
64501;DHT22;50874;24.150;-110.320;2023-03-01T02:31:18;19.90;73.40
64501;DHT22;50874;24.150;-110.320;2023-03-01T02:34:04;19.90;73.50
64501;DHT22;50874;24.150;-110.320;2023-03-01T02:37:00;19.80;73.80
64501;DHT22;50874;24.150;-110.320;2023-03-01T02:39:39;19.80;73.40
64501;DHT22;50874;24.150;-110.320;2023-03-01T02:42:11;19.80;73.60
64501;DHT22;50874;24.150;-110.320;2023-03-01T02:44:42;19.80;73.30
64501;DHT22;50874;24.150;-110.320;2023-03-01T02:47:14;19.70;73.40
64501;DHT22;50874;24.150;-110.320;2023-03-01T02:49:41;19.70;73.40
64501;DHT22;50874;24.150;-110.320;2023-03-01T02:52:27;19.70;73.70
64501;DHT22;50874;24.150;-110.320;2023-03-01T02:55:17;19.70;73.70
64501;DHT22;50874;24.150;-110.320;2023-03-01T02:57:45;19.60;73.20
64501;DHT22;50874;24.150;-110.320;2023-03-01T03:00:19;19.60;73.20
64501;DHT22;50874;24.150;-110.320;2023-03-01T03:02:50;19.50;73.30
64501;DHT22;50874;24.150;-110.320;2023-03-01T03:05:26;19.50;73.30
64501;DHT22;50874;24.150;-110.320;2023-03-01T03:07:53;19.50;73.50
64501;DHT22;50874;24.150;-110.320;2023-03-01T03:10:23;19.40;73.60
64501;DHT22;50874;24.150;-110.320;2023-03-01T03:12:52;19.40;73.70
64501;DHT22;50874;24.150;-110.320;2023-03-01T03:15:19;19.40;74.50
64501;DHT22;50874;24.150;-110.320;2023-03-01T03:17:47;19.30;74.30
64501;DHT22;50874;24.150;-110.320;2023-03-01T03:20:16;19.30;74.70
64501;DHT22;50874;24.150;-110.320;2023-03-01T03:22:50;19.20;75.10
64501;DHT22;50874;24.150;-110.320;2023-03-01T03:25:18;19.20;75.10
64501;DHT22;50874;24.150;-110.320;2023-03-01T03:27:47;19.10;75.20
64501;DHT22;50874;24.150;-110.320;2023-03-01T03:30:17;19.10;75.60
64501;DHT22;50874;24.150;-110.320;2023-03-01T03:32:46;19.00;76.30
64501;DHT22;50874;24.150;-110.320;2023-03-01T03:35:34;19.00;76.20
64501;DHT22;50874;24.150;-110.320;2023-03-01T03:38:05;19.00;76.30
64501;DHT22;50874;24.150;-110.320;2023-03-01T03:40:43;18.90;76.40
64501;DHT22;50874;24.150;-110.320;2023-03-01T03:43:15;18.80;76.40
64501;DHT22;50874;24.150;-110.320;2023-03-01T03:45:44;18.80;77.00
64501;DHT22;50874;24.150;-110.320;2023-03-01T03:48:11;18.70;77.00
64501;DHT22;50874;24.150;-110.320;2023-03-01T03:50:39;18.60;77.50
64501;DHT22;50874;24.150;-110.320;2023-03-01T03:53:09;18.60;77.50
64501;DHT22;50874;24.150;-110.320;2023-03-01T03:55:35;18.50;77.80
64501;DHT22;50874;24.150;-110.320;2023-03-01T03:58:09;18.50;76.40
64501;DHT22;50874;24.150;-110.320;2023-03-01T04:00:38;18.40;75.60
64501;DHT22;50874;24.150;-110.320;2023-03-01T04:03:05;18.40;75.70
64501;DHT22;50874;24.150;-110.320;2023-03-01T04:05:32;18.40;75.00
64501;DHT22;50874;24.150;-110.320;2023-03-01T04:07:58;18.40;73.80
64501;DHT22;50874;24.150;-110.320;2023-03-01T04:10:29;18.40;73.60
64501;DHT22;50874;24.150;-110.320;2023-03-01T04:12:56;18.40;73.40
64501;DHT22;50874;24.150;-110.320;2023-03-01T04:15:26;18.30;74.30
64501;DHT22;50874;24.150;-110.320;2023-03-01T04:17:54;18.30;74.10
64501;DHT22;50874;24.150;-110.320;2023-03-01T04:20:26;18.30;75.30
64501;DHT22;50874;24.150;-110.320;2023-03-01T04:23:02;18.10;75.30
64501;DHT22;50874;24.150;-110.320;2023-03-01T04:25:53;18.00;74.30
64501;DHT22;50874;24.150;-110.320;2023-03-01T04:28:25;17.90;74.40
64501;DHT22;50874;24.150;-110.320;2023-03-01T04:30:54;17.80;75.60
64501;DHT22;50874;24.150;-110.320;2023-03-01T04:33:21;17.70;74.50
64501;DHT22;50874;24.150;-110.320;2023-03-01T04:35:48;17.60;74.60
64501;DHT22;50874;24.150;-110.320;2023-03-01T04:38:16;17.60;75.20
64501;DHT22;50874;24.150;-110.320;2023-03-01T04:40:42;17.60;74.20
64501;DHT22;50874;24.150;-110.320;2023-03-01T04:43:10;17.50;73.90
64501;DHT22;50874;24.150;-110.320;2023-03-01T04:45:39;17.30;73.70
64501;DHT22;50874;24.150;-110.320;2023-03-01T04:48:05;17.00;73.70
64501;DHT22;50874;24.150;-110.320;2023-03-01T04:50:32;16.90;74.10
64501;DHT22;50874;24.150;-110.320;2023-03-01T04:52:59;16.70;74.50
64501;DHT22;50874;24.150;-110.320;2023-03-01T04:55:26;16.50;74.50
64501;DHT22;50874;24.150;-110.320;2023-03-01T04:57:54;16.50;74.80
64501;DHT22;50874;24.150;-110.320;2023-03-01T05:00:22;16.60;74.90
64501;DHT22;50874;24.150;-110.320;2023-03-01T05:03:00;16.60;74.70
64501;DHT22;50874;24.150;-110.320;2023-03-01T05:05:30;16.60;74.80
64501;DHT22;50874;24.150;-110.320;2023-03-01T05:07:59;16.50;74.70
64501;DHT22;50874;24.150;-110.320;2023-03-01T05:10:28;16.50;75.20
64501;DHT22;50874;24.150;-110.320;2023-03-01T05:12:58;16.30;75.20
64501;DHT22;50874;24.150;-110.320;2023-03-01T05:15:26;16.30;75.20
64501;DHT22;50874;24.150;-110.320;2023-03-01T05:17:59;16.20;75.80
64501;DHT22;50874;24.150;-110.320;2023-03-01T05:20:29;16.20;76.20
64501;DHT22;50874;24.150;-110.320;2023-03-01T05:22:58;16.00;75.90
64501;DHT22;50874;24.150;-110.320;2023-03-01T05:25:26;16.00;76.30
64501;DHT22;50874;24.150;-110.320;2023-03-01T05:27:52;15.90;76.20
64501;DHT22;50874;24.150;-110.320;2023-03-01T05:30:19;15.90;76.20
64501;DHT22;50874;24.150;-110.320;2023-03-01T05:32:48;15.80;76.60
64501;DHT22;50874;24.150;-110.320;2023-03-01T05:35:17;15.80;76.80
64501;DHT22;50874;24.150;-110.320;2023-03-01T05:37:46;15.80;77.00
64501;DHT22;50874;24.150;-110.320;2023-03-01T05:40:18;15.80;77.00
64501;DHT22;50874;24.150;-110.320;2023-03-01T05:42:45;15.80;77.20
64501;DHT22;50874;24.150;-110.320;2023-03-01T05:45:16;15.80;77.20
64501;DHT22;50874;24.150;-110.320;2023-03-01T05:47:44;15.70;76.90
64501;DHT22;50874;24.150;-110.320;2023-03-01T05:50:16;15.70;77.20
64501;DHT22;50874;24.150;-110.320;2023-03-01T05:52:51;15.50;77.30
64501;DHT22;50874;24.150;-110.320;2023-03-01T05:55:19;15.50;77.60
64501;DHT22;50874;24.150;-110.320;2023-03-01T05:57:46;15.40;77.90
64501;DHT22;50874;24.150;-110.320;2023-03-01T06:00:14;15.40;78.00
64501;DHT22;50874;24.150;-110.320;2023-03-01T06:02:41;15.40;78.20
64501;DHT22;50874;24.150;-110.320;2023-03-01T06:05:09;15.40;77.70
64501;DHT22;50874;24.150;-110.320;2023-03-01T06:07:36;15.40;77.50
64501;DHT22;50874;24.150;-110.320;2023-03-01T06:10:04;15.40;77.60
64501;DHT22;50874;24.150;-110.320;2023-03-01T06:12:32;15.40;77.60
64501;DHT22;50874;24.150;-110.320;2023-03-01T06:14:59;15.30;77.60
64501;DHT22;50874;24.150;-110.320;2023-03-01T06:17:28;15.30;77.80
64501;DHT22;50874;24.150;-110.320;2023-03-01T06:19:55;15.10;78.00
64501;DHT22;50874;24.150;-110.320;2023-03-01T06:22:22;15.00;78.40
64501;DHT22;50874;24.150;-110.320;2023-03-01T06:24:48;15.00;78.80
64501;DHT22;50874;24.150;-110.320;2023-03-01T06:27:16;15.00;78.50
64501;DHT22;50874;24.150;-110.320;2023-03-01T06:29:42;15.00;78.40
64501;DHT22;50874;24.150;-110.320;2023-03-01T06:32:08;15.00;78.50
64501;DHT22;50874;24.150;-110.320;2023-03-01T06:34:35;14.90;78.50
64501;DHT22;50874;24.150;-110.320;2023-03-01T06:37:01;14.90;78.60
64501;DHT22;50874;24.150;-110.320;2023-03-01T06:39:31;14.90;78.80
64501;DHT22;50874;24.150;-110.320;2023-03-01T06:41:59;14.90;79.00
64501;DHT22;50874;24.150;-110.320;2023-03-01T06:44:25;14.90;79.20
64501;DHT22;50874;24.150;-110.320;2023-03-01T06:46:52;15.00;79.40
64501;DHT22;50874;24.150;-110.320;2023-03-01T06:49:19;14.90;79.40
64501;DHT22;50874;24.150;-110.320;2023-03-01T06:51:45;14.90;79.50
64501;DHT22;50874;24.150;-110.320;2023-03-01T06:54:12;14.90;80.00
64501;DHT22;50874;24.150;-110.320;2023-03-01T06:56:39;14.90;80.20
64501;DHT22;50874;24.150;-110.320;2023-03-01T06:59:05;14.80;80.50
64501;DHT22;50874;24.150;-110.320;2023-03-01T07:01:32;14.80;80.70
64501;DHT22;50874;24.150;-110.320;2023-03-01T07:03:58;14.80;80.70
64501;DHT22;50874;24.150;-110.320;2023-03-01T07:06:25;14.70;80.60
64501;DHT22;50874;24.150;-110.320;2023-03-01T07:08:51;14.70;80.60
64501;DHT22;50874;24.150;-110.320;2023-03-01T07:11:18;14.60;80.80
64501;DHT22;50874;24.150;-110.320;2023-03-01T07:13:44;14.60;81.00
64501;DHT22;50874;24.150;-110.320;2023-03-01T07:16:10;14.50;81.20
64501;DHT22;50874;24.150;-110.320;2023-03-01T07:18:37;14.50;81.50
64501;DHT22;50874;24.150;-110.320;2023-03-01T07:21:07;14.40;81.60
64501;DHT22;50874;24.150;-110.320;2023-03-01T07:23:34;14.40;81.90
64501;DHT22;50874;24.150;-110.320;2023-03-01T07:26:01;14.40;82.70
64501;DHT22;50874;24.150;-110.320;2023-03-01T07:28:28;14.30;82.30
64501;DHT22;50874;24.150;-110.320;2023-03-01T07:30:55;14.20;82.60
64501;DHT22;50874;24.150;-110.320;2023-03-01T07:33:21;14.10;82.70
64501;DHT22;50874;24.150;-110.320;2023-03-01T07:35:48;14.10;83.10
64501;DHT22;50874;24.150;-110.320;2023-03-01T07:38:14;14.10;83.20
64501;DHT22;50874;24.150;-110.320;2023-03-01T07:40:41;14.10;83.70
64501;DHT22;50874;24.150;-110.320;2023-03-01T07:43:07;14.10;84.00
64501;DHT22;50874;24.150;-110.320;2023-03-01T07:45:33;14.10;84.10
64501;DHT22;50874;24.150;-110.320;2023-03-01T07:48:00;14.10;84.20
64501;DHT22;50874;24.150;-110.320;2023-03-01T07:50:27;14.10;84.40
64501;DHT22;50874;24.150;-110.320;2023-03-01T07:52:53;14.10;84.50
64501;DHT22;50874;24.150;-110.320;2023-03-01T07:55:19;14.10;84.90
64501;DHT22;50874;24.150;-110.320;2023-03-01T07:57:46;14.00;85.30
64501;DHT22;50874;24.150;-110.320;2023-03-01T08:00:13;14.00;85.90
64501;DHT22;50874;24.150;-110.320;2023-03-01T08:02:40;14.00;86.50
64501;DHT22;50874;24.150;-110.320;2023-03-01T08:05:09;14.00;86.70
64501;DHT22;50874;24.150;-110.320;2023-03-01T08:07:36;14.00;87.10
64501;DHT22;50874;24.150;-110.320;2023-03-01T08:10:03;14.00;86.90
64501;DHT22;50874;24.150;-110.320;2023-03-01T08:12:29;14.10;86.90
64501;DHT22;50874;24.150;-110.320;2023-03-01T08:14:56;14.10;86.30
64501;DHT22;50874;24.150;-110.320;2023-03-01T08:17:23;14.10;85.80
64501;DHT22;50874;24.150;-110.320;2023-03-01T08:19:49;14.20;85.80
64501;DHT22;50874;24.150;-110.320;2023-03-01T08:22:16;14.20;85.50
64501;DHT22;50874;24.150;-110.320;2023-03-01T08:24:42;14.20;85.50
64501;DHT22;50874;24.150;-110.320;2023-03-01T08:27:09;14.20;85.40
64501;DHT22;50874;24.150;-110.320;2023-03-01T08:29:36;14.20;85.20
64501;DHT22;50874;24.150;-110.320;2023-03-01T08:32:02;14.10;85.30
64501;DHT22;50874;24.150;-110.320;2023-03-01T08:34:29;14.10;85.40
64501;DHT22;50874;24.150;-110.320;2023-03-01T08:36:57;14.10;85.70
64501;DHT22;50874;24.150;-110.320;2023-03-01T08:39:23;14.10;86.20
64501;DHT22;50874;24.150;-110.320;2023-03-01T08:41:50;14.00;86.60
64501;DHT22;50874;24.150;-110.320;2023-03-01T08:44:16;14.00;87.10
64501;DHT22;50874;24.150;-110.320;2023-03-01T08:46:44;14.00;87.50
64501;DHT22;50874;24.150;-110.320;2023-03-01T08:49:16;13.90;88.00
64501;DHT22;50874;24.150;-110.320;2023-03-01T08:51:44;13.90;88.30
64501;DHT22;50874;24.150;-110.320;2023-03-01T08:54:21;13.90;88.60
64501;DHT22;50874;24.150;-110.320;2023-03-01T08:56:48;13.90;89.00
64501;DHT22;50874;24.150;-110.320;2023-03-01T08:59:17;13.80;89.40
64501;DHT22;50874;24.150;-110.320;2023-03-01T09:01:44;13.80;89.60
64501;DHT22;50874;24.150;-110.320;2023-03-01T09:04:12;13.70;90.00
64501;DHT22;50874;24.150;-110.320;2023-03-01T09:06:39;13.70;90.10
64501;DHT22;50874;24.150;-110.320;2023-03-01T09:09:07;13.70;90.10
64501;DHT22;50874;24.150;-110.320;2023-03-01T09:11:40;13.70;90.30
64501;DHT22;50874;24.150;-110.320;2023-03-01T09:14:07;13.70;90.20
64501;DHT22;50874;24.150;-110.320;2023-03-01T09:16:33;13.80;90.00
64501;DHT22;50874;24.150;-110.320;2023-03-01T09:19:02;13.80;89.90
64501;DHT22;50874;24.150;-110.320;2023-03-01T09:21:29;14.00;90.00
64501;DHT22;50874;24.150;-110.320;2023-03-01T09:23:57;14.20;90.40
64501;DHT22;50874;24.150;-110.320;2023-03-01T09:26:24;14.50;90.60
64501;DHT22;50874;24.150;-110.320;2023-03-01T09:28:53;14.70;90.80
64501;DHT22;50874;24.150;-110.320;2023-03-01T09:31:21;14.80;91.30
64501;DHT22;50874;24.150;-110.320;2023-03-01T09:33:49;15.00;91.80
64501;DHT22;50874;24.150;-110.320;2023-03-01T09:36:19;15.20;92.10
64501;DHT22;50874;24.150;-110.320;2023-03-01T09:38:47;15.40;92.40
64501;DHT22;50874;24.150;-110.320;2023-03-01T09:47:21;15.40;92.80
64501;DHT22;50874;24.150;-110.320;2023-03-01T09:52:41;15.30;93.30
64501;DHT22;50874;24.150;-110.320;2023-03-01T09:55:16;15.20;93.60
64501;DHT22;50874;24.150;-110.320;2023-03-01T09:57:50;15.10;94.30
64501;DHT22;50874;24.150;-110.320;2023-03-01T10:00:43;15.00;94.20
64501;DHT22;50874;24.150;-110.320;2023-03-01T10:03:16;14.80;95.10
64501;DHT22;50874;24.150;-110.320;2023-03-01T10:06:04;14.60;95.30
64501;DHT22;50874;24.150;-110.320;2023-03-01T10:08:57;14.40;94.50
64501;DHT22;50874;24.150;-110.320;2023-03-01T10:11:52;14.40;94.10
64501;DHT22;50874;24.150;-110.320;2023-03-01T10:17:43;14.20;93.50
64501;DHT22;50874;24.150;-110.320;2023-03-01T10:19:49;14.30;93.40
64501;DHT22;50874;24.150;-110.320;2023-03-01T10:22:22;14.20;93.40
64501;DHT22;50874;24.150;-110.320;2023-03-01T10:24:51;14.20;93.60
64501;DHT22;50874;24.150;-110.320;2023-03-01T10:27:26;14.20;93.60
64501;DHT22;50874;24.150;-110.320;2023-03-01T10:32:28;14.10;93.80
64501;DHT22;50874;24.150;-110.320;2023-03-01T10:34:54;14.10;93.70
64501;DHT22;50874;24.150;-110.320;2023-03-01T10:37:23;14.00;93.70
64501;DHT22;50874;24.150;-110.320;2023-03-01T10:40:03;14.00;94.10
64501;DHT22;50874;24.150;-110.320;2023-03-01T10:42:47;14.00;93.80
64501;DHT22;50874;24.150;-110.320;2023-03-01T10:48:10;13.90;93.60
64501;DHT22;50874;24.150;-110.320;2023-03-01T10:50:38;13.90;93.60
64501;DHT22;50874;24.150;-110.320;2023-03-01T10:53:32;13.90;93.60
64501;DHT22;50874;24.150;-110.320;2023-03-01T10:56:02;13.80;93.50
64501;DHT22;50874;24.150;-110.320;2023-03-01T10:58:30;13.80;93.60
64501;DHT22;50874;24.150;-110.320;2023-03-01T11:00:59;13.80;93.70
64501;DHT22;50874;24.150;-110.320;2023-03-01T11:03:31;13.80;93.50
64501;DHT22;50874;24.150;-110.320;2023-03-01T11:06:19;13.90;93.60
64501;DHT22;50874;24.150;-110.320;2023-03-01T11:08:49;14.00;93.70
64501;DHT22;50874;24.150;-110.320;2023-03-01T11:16:24;14.30;94.50
64501;DHT22;50874;24.150;-110.320;2023-03-01T11:19:04;14.50;94.70
64501;DHT22;50874;24.150;-110.320;2023-03-01T11:21:34;14.60;94.90
64501;DHT22;50874;24.150;-110.320;2023-03-01T11:24:02;14.80;94.80
64501;DHT22;50874;24.150;-110.320;2023-03-01T11:26:31;14.90;94.80
64501;DHT22;50874;24.150;-110.320;2023-03-01T11:29:05;15.00;94.80
64501;DHT22;50874;24.150;-110.320;2023-03-01T11:31:33;15.10;95.00
64501;DHT22;50874;24.150;-110.320;2023-03-01T11:34:09;15.10;95.10
64501;DHT22;50874;24.150;-110.320;2023-03-01T11:36:46;15.00;93.90
64501;DHT22;50874;24.150;-110.320;2023-03-01T11:39:31;14.80;93.20
64501;DHT22;50874;24.150;-110.320;2023-03-01T11:44:35;14.50;92.70
64501;DHT22;50874;24.150;-110.320;2023-03-01T11:49:45;14.30;92.90
64501;DHT22;50874;24.150;-110.320;2023-03-01T11:52:35;14.20;92.90
64501;DHT22;50874;24.150;-110.320;2023-03-01T11:55:17;14.10;93.10
64501;DHT22;50874;24.150;-110.320;2023-03-01T11:58:25;13.90;93.20
64501;DHT22;50874;24.150;-110.320;2023-03-01T12:00:59;13.90;93.20
64501;DHT22;50874;24.150;-110.320;2023-03-01T12:17:33;13.60;94.20
64501;DHT22;50874;24.150;-110.320;2023-03-01T12:41:47;13.50;95.30
64501;DHT22;50874;24.150;-110.320;2023-03-01T12:47:19;13.50;95.40
64501;DHT22;50874;24.150;-110.320;2023-03-01T12:50:13;13.50;95.50
64501;DHT22;50874;24.150;-110.320;2023-03-01T12:52:56;13.40;95.60
64501;DHT22;50874;24.150;-110.320;2023-03-01T13:01:14;13.30;95.80
64501;DHT22;50874;24.150;-110.320;2023-03-01T13:04:02;13.20;95.70
64501;DHT22;50874;24.150;-110.320;2023-03-01T13:11:47;13.10;96.30
64501;DHT22;50874;24.150;-110.320;2023-03-01T13:16:52;13.10;96.70
64501;DHT22;50874;24.150;-110.320;2023-03-01T13:19:26;13.00;96.80
64501;DHT22;50874;24.150;-110.320;2023-03-01T13:21:58;13.00;96.90
64501;DHT22;50874;24.150;-110.320;2023-03-01T13:24:41;13.00;97.20
64501;DHT22;50874;24.150;-110.320;2023-03-01T13:27:20;13.00;97.20
64501;DHT22;50874;24.150;-110.320;2023-03-01T13:29:53;12.90;97.30
64501;DHT22;50874;24.150;-110.320;2023-03-01T13:34:49;12.90;97.40
64501;DHT22;50874;24.150;-110.320;2023-03-01T13:37:30;12.90;97.50
64501;DHT22;50874;24.150;-110.320;2023-03-01T13:39:59;13.00;97.40
64501;DHT22;50874;24.150;-110.320;2023-03-01T13:42:34;13.00;97.80
64501;DHT22;50874;24.150;-110.320;2023-03-01T13:45:04;13.00;97.60
64501;DHT22;50874;24.150;-110.320;2023-03-01T13:47:33;13.00;97.80
64501;DHT22;50874;24.150;-110.320;2023-03-01T13:50:02;13.10;98.10
64501;DHT22;50874;24.150;-110.320;2023-03-01T13:58:01;13.20;98.40
64501;DHT22;50874;24.150;-110.320;2023-03-01T14:00:35;13.20;98.50
64501;DHT22;50874;24.150;-110.320;2023-03-01T14:03:19;13.30;98.50
64501;DHT22;50874;24.150;-110.320;2023-03-01T14:06:12;13.40;98.50
64501;DHT22;50874;24.150;-110.320;2023-03-01T14:08:39;13.50;98.50
64501;DHT22;50874;24.150;-110.320;2023-03-01T14:19:36;14.00;98.70
64501;DHT22;50874;24.150;-110.320;2023-03-01T14:24:49;14.00;98.50
64501;DHT22;50874;24.150;-110.320;2023-03-01T14:27:17;14.10;99.90
64501;DHT22;50874;24.150;-110.320;2023-03-01T14:29:44;14.40;99.90
64501;DHT22;50874;24.150;-110.320;2023-03-01T14:32:22;14.70;99.90
64501;DHT22;50874;24.150;-110.320;2023-03-01T14:34:50;14.90;99.90
64501;DHT22;50874;24.150;-110.320;2023-03-01T14:37:27;15.10;99.90
64501;DHT22;50874;24.150;-110.320;2023-03-01T14:39:55;15.30;98.90
64501;DHT22;50874;24.150;-110.320;2023-03-01T14:42:25;15.60;97.80
64501;DHT22;50874;24.150;-110.320;2023-03-01T14:44:55;15.90;97.30
64501;DHT22;50874;24.150;-110.320;2023-03-01T14:47:31;16.20;97.00
64501;DHT22;50874;24.150;-110.320;2023-03-01T14:50:15;16.50;96.00
64501;DHT22;50874;24.150;-110.320;2023-03-01T14:52:48;16.90;95.10
64501;DHT22;50874;24.150;-110.320;2023-03-01T14:55:30;17.10;94.40
64501;DHT22;50874;24.150;-110.320;2023-03-01T14:57:58;17.40;94.30
64501;DHT22;50874;24.150;-110.320;2023-03-01T15:00:29;17.50;94.00
64501;DHT22;50874;24.150;-110.320;2023-03-01T15:03:11;17.60;93.70
64501;DHT22;50874;24.150;-110.320;2023-03-01T15:05:40;17.80;93.70
64501;DHT22;50874;24.150;-110.320;2023-03-01T15:08:19;17.80;93.50
64501;DHT22;50874;24.150;-110.320;2023-03-01T15:13:34;17.90;93.00
64501;DHT22;50874;24.150;-110.320;2023-03-01T15:16:10;17.90;93.10
64501;DHT22;50874;24.150;-110.320;2023-03-01T15:19:15;18.00;93.10
64501;DHT22;50874;24.150;-110.320;2023-03-01T15:21:40;18.10;93.00
64501;DHT22;50874;24.150;-110.320;2023-03-01T15:27:12;19.10;91.60
64501;DHT22;50874;24.150;-110.320;2023-03-01T15:29:40;19.70;91.10
64501;DHT22;50874;24.150;-110.320;2023-03-01T15:32:27;19.80;90.70
64501;DHT22;50874;24.150;-110.320;2023-03-01T15:34:54;20.30;90.60
64501;DHT22;50874;24.150;-110.320;2023-03-01T15:37:59;20.50;90.00
64501;DHT22;50874;24.150;-110.320;2023-03-01T15:40:28;20.50;88.20
64501;DHT22;50874;24.150;-110.320;2023-03-01T15:43:03;20.60;88.50
64501;DHT22;50874;24.150;-110.320;2023-03-01T15:45:31;20.80;87.80
64501;DHT22;50874;24.150;-110.320;2023-03-01T15:48:04;20.90;87.10
64501;DHT22;50874;24.150;-110.320;2023-03-01T15:50:33;21.50;85.70
64501;DHT22;50874;24.150;-110.320;2023-03-01T15:53:09;22.20;84.40
64501;DHT22;50874;24.150;-110.320;2023-03-01T15:55:37;23.00;83.00
64501;DHT22;50874;24.150;-110.320;2023-03-01T15:58:23;23.60;80.20
64501;DHT22;50874;24.150;-110.320;2023-03-01T16:00:50;23.80;79.50
64501;DHT22;50874;24.150;-110.320;2023-03-01T16:03:22;24.00;79.30
64501;DHT22;50874;24.150;-110.320;2023-03-01T16:05:49;23.90;78.90
64501;DHT22;50874;24.150;-110.320;2023-03-01T16:08:19;23.70;79.00
64501;DHT22;50874;24.150;-110.320;2023-03-01T16:10:49;23.60;79.90
64501;DHT22;50874;24.150;-110.320;2023-03-01T16:13:17;23.60;79.40
64501;DHT22;50874;24.150;-110.320;2023-03-01T16:15:43;23.50;79.60
64501;DHT22;50874;24.150;-110.320;2023-03-01T16:18:10;23.40;80.00
64501;DHT22;50874;24.150;-110.320;2023-03-01T16:20:37;23.30;80.70
64501;DHT22;50874;24.150;-110.320;2023-03-01T16:23:06;23.30;81.80
64501;DHT22;50874;24.150;-110.320;2023-03-01T16:25:36;23.30;82.40
64501;DHT22;50874;24.150;-110.320;2023-03-01T16:28:03;23.40;83.00
64501;DHT22;50874;24.150;-110.320;2023-03-01T16:30:35;23.20;83.70
64501;DHT22;50874;24.150;-110.320;2023-03-01T16:33:02;23.20;84.40
64501;DHT22;50874;24.150;-110.320;2023-03-01T16:35:32;23.10;85.10
64501;DHT22;50874;24.150;-110.320;2023-03-01T16:38:00;23.10;85.50
64501;DHT22;50874;24.150;-110.320;2023-03-01T16:40:27;23.10;86.70
64501;DHT22;50874;24.150;-110.320;2023-03-01T16:42:56;23.20;87.20
64501;DHT22;50874;24.150;-110.320;2023-03-01T16:45:34;23.20;88.00
64501;DHT22;50874;24.150;-110.320;2023-03-01T16:48:02;23.20;89.40
64501;DHT22;50874;24.150;-110.320;2023-03-01T16:50:29;23.20;90.00
64501;DHT22;50874;24.150;-110.320;2023-03-01T16:52:55;23.40;89.80
64501;DHT22;50874;24.150;-110.320;2023-03-01T16:55:22;23.50;89.40
64501;DHT22;50874;24.150;-110.320;2023-03-01T16:57:49;23.50;89.30
64501;DHT22;50874;24.150;-110.320;2023-03-01T17:00:17;23.50;89.40
64501;DHT22;50874;24.150;-110.320;2023-03-01T17:02:43;23.40;89.20
64501;DHT22;50874;24.150;-110.320;2023-03-01T17:05:10;23.70;89.30
64501;DHT22;50874;24.150;-110.320;2023-03-01T17:07:56;23.60;88.40